SAS4107 ENBO-ENGM
Flight info
| Callsign | SAS4107 |
|---|---|
| Flight time | 1h 16m |
| Altitude | 38000 |
| Route | DISMU DCT SOMUB DCT BELGU |
| Aircraft | A320/M-SDE3FGHIJ1RWXYZ/ALB1 |
Departure
| Time | 2026-05-08 19:07 |
|---|---|
| Airport | Bodø Airport (ENBO) |
Arrival
| Time | 2026-05-08 20:24 |
|---|---|
| Airport | Oslo-Gardermoen International Airport (ENGM) |
| Time | Latitude | Longitude | Altitude | Speed | Heading |
|---|---|---|---|---|---|
| 2026-05-08 18:42 | 67.27144 | 14.36789 | 50 ft | 0 kts | 357° |
| 2026-05-08 18:57 | 67.27130 | 14.36791 | 50 ft | 2 kts | 357° |
| 2026-05-08 18:57 | 67.27120 | 14.36792 | 50 ft | 1 kts | 357° |
| 2026-05-08 18:57 | 67.27106 | 14.36798 | 50 ft | 2 kts | 334° |
| 2026-05-08 18:57 | 67.27093 | 14.36819 | 50 ft | 2 kts | 315° |
| 2026-05-08 18:58 | 67.27084 | 14.36850 | 50 ft | 2 kts | 294° |
| 2026-05-08 18:58 | 67.27080 | 14.36887 | 50 ft | 2 kts | 274° |
| 2026-05-08 18:58 | 67.27080 | 14.36913 | 50 ft | 0 kts | 260° |
| 2026-05-08 18:58 | 67.27082 | 14.36931 | 50 ft | 0 kts | 257° |
| 2026-05-08 19:02 | 67.27081 | 14.36926 | 50 ft | 1 kts | 257° |
| 2026-05-08 19:03 | 67.27078 | 14.36871 | 50 ft | 4 kts | 258° |
| 2026-05-08 19:03 | 67.27068 | 14.36736 | 50 ft | 10 kts | 259° |
| 2026-05-08 19:03 | 67.27054 | 14.36541 | 50 ft | 11 kts | 259° |
| 2026-05-08 19:03 | 67.27035 | 14.36279 | 50 ft | 18 kts | 258° |
| 2026-05-08 19:04 | 67.27007 | 14.35907 | 50 ft | 23 kts | 262° |
| 2026-05-08 19:04 | 67.26971 | 14.35441 | 50 ft | 28 kts | 256° |
| 2026-05-08 19:04 | 67.26924 | 14.34893 | 50 ft | 33 kts | 256° |
| 2026-05-08 19:04 | 67.26874 | 14.34300 | 50 ft | 33 kts | 257° |
| 2026-05-08 19:05 | 67.26829 | 14.33753 | 50 ft | 21 kts | 257° |
| 2026-05-08 19:05 | 67.26808 | 14.33500 | 50 ft | 11 kts | 257° |
| 2026-05-08 19:05 | 67.26772 | 14.33388 | 50 ft | 4 kts | 178° |
| 2026-05-08 19:05 | 67.26757 | 14.33392 | 50 ft | 3 kts | 173° |
| 2026-05-08 19:06 | 67.26719 | 14.33411 | 50 ft | 8 kts | 168° |
| 2026-05-08 19:06 | 67.26670 | 14.33488 | 50 ft | 9 kts | 83° |
| 2026-05-08 19:06 | 67.26674 | 14.33567 | 50 ft | 0 kts | 79° |
| 2026-05-08 19:06 | 67.26676 | 14.33596 | 50 ft | 11 kts | 78° |
| 2026-05-08 19:07 | 67.26736 | 14.34350 | 50 ft | 77 kts | 78° |
| 2026-05-08 19:07 | 67.26891 | 14.36224 | 51 ft | 136 kts | 78° |
| 2026-05-08 19:07 | 67.27121 | 14.38920 | 302 ft | 163 kts | 78° |
| 2026-05-08 19:07 | 67.27339 | 14.42752 | 1198 ft | 163 kts | 91° |
| 2026-05-08 19:08 | 67.27281 | 14.44673 | 1687 ft | 163 kts | 96° |
| 2026-05-08 19:08 | 67.27088 | 14.47503 | 2234 ft | 166 kts | 112° |
| 2026-05-08 19:08 | 67.26233 | 14.49586 | 2554 ft | 185 kts | 160° |
| 2026-05-08 19:08 | 67.24937 | 14.50240 | 3021 ft | 197 kts | 167° |
| 2026-05-08 19:09 | 67.23534 | 14.51013 | 3382 ft | 218 kts | 162° |
| 2026-05-08 19:09 | 67.22044 | 14.52183 | 3917 ft | 232 kts | 162° |
| 2026-05-08 19:09 | 67.20488 | 14.53397 | 4698 ft | 235 kts | 163° |
| 2026-05-08 19:09 | 67.18924 | 14.54538 | 5543 ft | 236 kts | 165° |
| 2026-05-08 19:10 | 67.17357 | 14.55626 | 6294 ft | 239 kts | 166° |
| 2026-05-08 19:10 | 67.15741 | 14.56712 | 6857 ft | 242 kts | 166° |
| 2026-05-08 19:10 | 67.14133 | 14.57774 | 7672 ft | 244 kts | 167° |
| 2026-05-08 19:10 | 67.12465 | 14.58305 | 8509 ft | 244 kts | 182° |
| 2026-05-08 19:11 | 67.10774 | 14.57691 | 9124 ft | 254 kts | 193° |
| 2026-05-08 19:11 | 67.09023 | 14.56561 | 9647 ft | 268 kts | 194° |
| 2026-05-08 19:11 | 67.07204 | 14.55331 | 10385 ft | 273 kts | 194° |
| 2026-05-08 19:11 | 67.05332 | 14.54076 | 10869 ft | 286 kts | 194° |
| 2026-05-08 19:12 | 67.03373 | 14.52777 | 11402 ft | 296 kts | 194° |
| 2026-05-08 19:12 | 67.00709 | 14.51027 | 12358 ft | 300 kts | 194° |
| 2026-05-08 19:12 | 66.99374 | 14.50155 | 12807 ft | 303 kts | 194° |
| 2026-05-08 19:12 | 66.97317 | 14.48816 | 13457 ft | 306 kts | 195° |
| 2026-05-08 19:13 | 66.95255 | 14.47477 | 14107 ft | 309 kts | 195° |
| 2026-05-08 19:13 | 66.93179 | 14.46132 | 14727 ft | 313 kts | 195° |
| 2026-05-08 19:13 | 66.91067 | 14.44769 | 15346 ft | 316 kts | 195° |
| 2026-05-08 19:13 | 66.88203 | 14.42923 | 16148 ft | 320 kts | 195° |
| 2026-05-08 19:14 | 66.86758 | 14.41991 | 16543 ft | 322 kts | 196° |
| 2026-05-08 19:14 | 66.84563 | 14.40574 | 17130 ft | 326 kts | 196° |
| 2026-05-08 19:14 | 66.82392 | 14.39168 | 17686 ft | 329 kts | 197° |
| 2026-05-08 19:14 | 66.80186 | 14.37740 | 18248 ft | 331 kts | 197° |
| 2026-05-08 19:15 | 66.77203 | 14.35818 | 18984 ft | 335 kts | 197° |
| 2026-05-08 19:15 | 66.75716 | 14.34863 | 19340 ft | 337 kts | 197° |
| 2026-05-08 19:15 | 66.73447 | 14.33404 | 19885 ft | 339 kts | 197° |
| 2026-05-08 19:15 | 66.71147 | 14.31930 | 20415 ft | 342 kts | 197° |
| 2026-05-08 19:16 | 66.68865 | 14.30472 | 20931 ft | 344 kts | 197° |
| 2026-05-08 19:16 | 66.66564 | 14.29004 | 21421 ft | 347 kts | 197° |
| 2026-05-08 19:16 | 66.64214 | 14.27422 | 21905 ft | 347 kts | 202° |
| 2026-05-08 19:16 | 66.61518 | 14.23245 | 22508 ft | 343 kts | 227° |
| 2026-05-08 19:17 | 66.60503 | 14.20213 | 22822 ft | 342 kts | 237° |
| 2026-05-08 19:17 | 66.59233 | 14.15164 | 23288 ft | 343 kts | 239° |
| 2026-05-08 19:17 | 66.57985 | 14.10091 | 23727 ft | 346 kts | 239° |
| 2026-05-08 19:17 | 66.56699 | 14.04906 | 24172 ft | 348 kts | 239° |
| 2026-05-08 19:18 | 66.55429 | 13.99817 | 24608 ft | 350 kts | 239° |
| 2026-05-08 19:18 | 66.53981 | 13.94833 | 25029 ft | 355 kts | 228° |
| 2026-05-08 19:18 | 66.52066 | 13.91011 | 25457 ft | 361 kts | 213° |
| 2026-05-08 19:18 | 66.49756 | 13.88520 | 25895 ft | 367 kts | 201° |
| 2026-05-08 19:19 | 66.47306 | 13.86678 | 26356 ft | 368 kts | 201° |
| 2026-05-08 19:19 | 66.44850 | 13.84866 | 26754 ft | 370 kts | 201° |
| 2026-05-08 19:19 | 66.42397 | 13.83059 | 27143 ft | 372 kts | 201° |
| 2026-05-08 19:19 | 66.39902 | 13.81218 | 27543 ft | 373 kts | 201° |
| 2026-05-08 19:20 | 66.37421 | 13.79388 | 27915 ft | 375 kts | 201° |
| 2026-05-08 19:20 | 66.35770 | 13.78172 | 28166 ft | 376 kts | 201° |
| 2026-05-08 19:20 | 66.32458 | 13.75732 | 28674 ft | 377 kts | 201° |
| 2026-05-08 19:20 | 66.29926 | 13.73873 | 29049 ft | 378 kts | 201° |
| 2026-05-08 19:21 | 66.27400 | 13.72019 | 29406 ft | 379 kts | 201° |
| 2026-05-08 19:21 | 66.24881 | 13.70172 | 29753 ft | 381 kts | 201° |
| 2026-05-08 19:21 | 66.22360 | 13.68328 | 30064 ft | 382 kts | 202° |
| 2026-05-08 19:21 | 66.19798 | 13.66460 | 30402 ft | 383 kts | 202° |
| 2026-05-08 19:22 | 66.17280 | 13.64626 | 30721 ft | 385 kts | 202° |
| 2026-05-08 19:22 | 66.14719 | 13.62763 | 31022 ft | 386 kts | 202° |
| 2026-05-08 19:22 | 66.12116 | 13.60875 | 31302 ft | 388 kts | 202° |
| 2026-05-08 19:22 | 66.09553 | 13.59019 | 31585 ft | 389 kts | 202° |
| 2026-05-08 19:23 | 66.06982 | 13.57162 | 31833 ft | 391 kts | 202° |
| 2026-05-08 19:23 | 66.04377 | 13.55283 | 32066 ft | 393 kts | 202° |
| 2026-05-08 19:23 | 66.01739 | 13.53386 | 32320 ft | 394 kts | 202° |
| 2026-05-08 19:23 | 65.99133 | 13.51513 | 32568 ft | 395 kts | 202° |
| 2026-05-08 19:24 | 65.96506 | 13.49632 | 32830 ft | 396 kts | 202° |
| 2026-05-08 19:24 | 65.93854 | 13.47737 | 33101 ft | 396 kts | 202° |
| 2026-05-08 19:24 | 65.91232 | 13.45869 | 33352 ft | 397 kts | 202° |
| 2026-05-08 19:24 | 65.88596 | 13.43993 | 33667 ft | 396 kts | 202° |
| 2026-05-08 19:25 | 65.85065 | 13.41492 | 34120 ft | 394 kts | 202° |
| 2026-05-08 19:25 | 65.82452 | 13.39642 | 34404 ft | 392 kts | 202° |
| 2026-05-08 19:25 | 65.79858 | 13.37809 | 34679 ft | 391 kts | 202° |
| 2026-05-08 19:25 | 65.78118 | 13.36583 | 34845 ft | 391 kts | 202° |
| 2026-05-08 19:26 | 65.75507 | 13.34747 | 35077 ft | 390 kts | 201° |
| 2026-05-08 19:26 | 65.72933 | 13.32938 | 35288 ft | 390 kts | 201° |
| 2026-05-08 19:26 | 65.70310 | 13.31099 | 35472 ft | 390 kts | 201° |
| 2026-05-08 19:26 | 65.67736 | 13.29295 | 35618 ft | 391 kts | 201° |
| 2026-05-08 19:27 | 65.65128 | 13.27471 | 35763 ft | 392 kts | 201° |
| 2026-05-08 19:27 | 65.62512 | 13.25647 | 35887 ft | 393 kts | 201° |
| 2026-05-08 19:27 | 65.59883 | 13.23819 | 36031 ft | 393 kts | 201° |
| 2026-05-08 19:27 | 65.56427 | 13.21421 | 36223 ft | 394 kts | 200° |
| 2026-05-08 19:28 | 65.54646 | 13.20189 | 36310 ft | 394 kts | 200° |
| 2026-05-08 19:28 | 65.52013 | 13.18369 | 36433 ft | 395 kts | 200° |
| 2026-05-08 19:28 | 65.49380 | 13.16554 | 36551 ft | 396 kts | 200° |
| 2026-05-08 19:28 | 65.45870 | 13.14139 | 36693 ft | 398 kts | 200° |
| 2026-05-08 19:29 | 65.44091 | 13.12920 | 36751 ft | 399 kts | 200° |
| 2026-05-08 19:29 | 65.38759 | 13.09272 | 36944 ft | 402 kts | 200° |
| 2026-05-08 19:29 | 65.35200 | 13.06845 | 37070 ft | 404 kts | 200° |
| 2026-05-08 19:30 | 65.33408 | 13.05626 | 37134 ft | 404 kts | 200° |
| 2026-05-08 19:30 | 65.27945 | 13.01921 | 37298 ft | 407 kts | 199° |
| 2026-05-08 19:31 | 65.22546 | 12.98276 | 37490 ft | 409 kts | 199° |
| 2026-05-08 19:31 | 65.17065 | 12.94588 | 37639 ft | 411 kts | 199° |
| 2026-05-08 19:32 | 65.11562 | 12.90905 | 37786 ft | 414 kts | 199° |
| 2026-05-08 19:32 | 65.06010 | 12.87201 | 37954 ft | 416 kts | 199° |
| 2026-05-08 19:33 | 64.99482 | 12.82872 | 38075 ft | 419 kts | 199° |
| 2026-05-08 19:33 | 64.94816 | 12.79789 | 38085 ft | 419 kts | 199° |
| 2026-05-08 19:34 | 64.89222 | 12.76108 | 38092 ft | 419 kts | 199° |
| 2026-05-08 19:34 | 64.82690 | 12.71830 | 38093 ft | 419 kts | 199° |
| 2026-05-08 19:35 | 64.77136 | 12.68208 | 38089 ft | 418 kts | 199° |
| 2026-05-08 19:35 | 64.72464 | 12.65174 | 38092 ft | 418 kts | 199° |
| 2026-05-08 19:36 | 64.66902 | 12.61576 | 38100 ft | 418 kts | 199° |
| 2026-05-08 19:36 | 64.60402 | 12.57390 | 38086 ft | 418 kts | 199° |
| 2026-05-08 19:37 | 64.55752 | 12.54408 | 38089 ft | 418 kts | 199° |
| 2026-05-08 19:37 | 64.49236 | 12.50248 | 38096 ft | 418 kts | 199° |
| 2026-05-08 19:38 | 64.43652 | 12.46700 | 38091 ft | 417 kts | 199° |
| 2026-05-08 19:38 | 64.38060 | 12.43160 | 38096 ft | 418 kts | 199° |
| 2026-05-08 19:39 | 64.32497 | 12.39653 | 38105 ft | 418 kts | 199° |
| 2026-05-08 19:39 | 64.26925 | 12.36157 | 38097 ft | 417 kts | 199° |
| 2026-05-08 19:40 | 64.21325 | 12.32659 | 38106 ft | 417 kts | 198° |
| 2026-05-08 19:40 | 64.15742 | 12.29182 | 38102 ft | 417 kts | 198° |
| 2026-05-08 19:41 | 64.11093 | 12.26303 | 38098 ft | 417 kts | 198° |
| 2026-05-08 19:41 | 64.05511 | 12.22854 | 38093 ft | 416 kts | 198° |
| 2026-05-08 19:42 | 63.99936 | 12.19426 | 38089 ft | 416 kts | 198° |
| 2026-05-08 19:42 | 63.94353 | 12.16005 | 38081 ft | 416 kts | 198° |
| 2026-05-08 19:43 | 63.88738 | 12.12579 | 38082 ft | 416 kts | 198° |
| 2026-05-08 19:43 | 63.83183 | 12.09205 | 38088 ft | 416 kts | 198° |
| 2026-05-08 19:44 | 63.76653 | 12.05256 | 38092 ft | 416 kts | 198° |
| 2026-05-08 19:44 | 63.71091 | 12.01909 | 38095 ft | 415 kts | 198° |
| 2026-05-08 19:45 | 63.66435 | 11.99115 | 38088 ft | 415 kts | 198° |
| 2026-05-08 19:45 | 63.59947 | 11.95237 | 38081 ft | 415 kts | 198° |
| 2026-05-08 19:46 | 63.55339 | 11.92496 | 38075 ft | 416 kts | 198° |
| 2026-05-08 19:46 | 63.46056 | 11.87007 | 38086 ft | 416 kts | 198° |
| 2026-05-08 19:47 | 63.41410 | 11.84272 | 38084 ft | 416 kts | 198° |
| 2026-05-08 19:47 | 63.34874 | 11.80440 | 38086 ft | 415 kts | 198° |
| 2026-05-08 19:48 | 63.29314 | 11.77077 | 38084 ft | 415 kts | 198° |
| 2026-05-08 19:48 | 63.24688 | 11.74262 | 38087 ft | 414 kts | 198° |
| 2026-05-08 19:49 | 63.18243 | 11.70371 | 38081 ft | 414 kts | 198° |
| 2026-05-08 19:49 | 63.12697 | 11.67035 | 38083 ft | 414 kts | 198° |
| 2026-05-08 19:50 | 63.07162 | 11.63727 | 38086 ft | 413 kts | 198° |
| 2026-05-08 19:50 | 63.02571 | 11.60994 | 38085 ft | 413 kts | 198° |
| 2026-05-08 19:51 | 62.97037 | 11.57710 | 38080 ft | 414 kts | 198° |
| 2026-05-08 19:51 | 62.90559 | 11.53881 | 38084 ft | 414 kts | 198° |
| 2026-05-08 19:52 | 62.84979 | 11.50600 | 38087 ft | 414 kts | 198° |
| 2026-05-08 19:52 | 62.79447 | 11.47358 | 38086 ft | 414 kts | 198° |
| 2026-05-08 19:53 | 62.74806 | 11.44649 | 38091 ft | 415 kts | 198° |
| 2026-05-08 19:53 | 62.68321 | 11.40875 | 38098 ft | 415 kts | 198° |
| 2026-05-08 19:54 | 62.63688 | 11.38191 | 38108 ft | 415 kts | 198° |
| 2026-05-08 19:54 | 62.58153 | 11.34995 | 38120 ft | 415 kts | 197° |
| 2026-05-08 19:55 | 62.51642 | 11.31254 | 38125 ft | 415 kts | 197° |
| 2026-05-08 19:55 | 62.48853 | 11.29653 | 37968 ft | 415 kts | 197° |
| 2026-05-08 19:55 | 62.46064 | 11.28059 | 37926 ft | 411 kts | 197° |
| 2026-05-08 19:56 | 62.40577 | 11.24929 | 38063 ft | 413 kts | 197° |
| 2026-05-08 19:56 | 62.35023 | 11.21774 | 38097 ft | 414 kts | 197° |
| 2026-05-08 19:57 | 62.30386 | 11.19139 | 38012 ft | 416 kts | 197° |
| 2026-05-08 19:57 | 62.26663 | 11.17032 | 37773 ft | 411 kts | 197° |
| 2026-05-08 19:57 | 62.23932 | 11.15494 | 37607 ft | 407 kts | 197° |
| 2026-05-08 19:58 | 62.21190 | 11.13950 | 37431 ft | 404 kts | 197° |
| 2026-05-08 19:58 | 62.19424 | 11.12957 | 37293 ft | 402 kts | 197° |
| 2026-05-08 19:58 | 62.15832 | 11.10944 | 36929 ft | 397 kts | 197° |
| 2026-05-08 19:58 | 62.14066 | 11.09955 | 36687 ft | 396 kts | 197° |
| 2026-05-08 19:59 | 62.11440 | 11.08486 | 36231 ft | 397 kts | 197° |
| 2026-05-08 19:59 | 62.07889 | 11.06503 | 35525 ft | 400 kts | 197° |
| 2026-05-08 19:59 | 62.05204 | 11.05009 | 34872 ft | 402 kts | 197° |
| 2026-05-08 19:59 | 62.03383 | 11.03995 | 34355 ft | 403 kts | 197° |
| 2026-05-08 20:00 | 61.99793 | 11.02005 | 33458 ft | 401 kts | 197° |
| 2026-05-08 20:00 | 61.98013 | 11.01023 | 33037 ft | 399 kts | 197° |
| 2026-05-08 20:00 | 61.95351 | 10.99554 | 32473 ft | 396 kts | 197° |
| 2026-05-08 20:00 | 61.91839 | 10.97631 | 31924 ft | 387 kts | 197° |
| 2026-05-08 20:01 | 61.89285 | 10.96231 | 31476 ft | 382 kts | 197° |
| 2026-05-08 20:01 | 61.87574 | 10.95294 | 31167 ft | 379 kts | 197° |
| 2026-05-08 20:01 | 61.85020 | 10.93896 | 30701 ft | 375 kts | 196° |
| 2026-05-08 20:01 | 61.81705 | 10.92085 | 30091 ft | 370 kts | 197° |
| 2026-05-08 20:02 | 61.79220 | 10.90730 | 29644 ft | 366 kts | 197° |
| 2026-05-08 20:02 | 61.77583 | 10.89838 | 29352 ft | 364 kts | 197° |
| 2026-05-08 20:02 | 61.74341 | 10.88072 | 28757 ft | 358 kts | 197° |
| 2026-05-08 20:02 | 61.71943 | 10.86769 | 28317 ft | 355 kts | 197° |
| 2026-05-08 20:03 | 61.69570 | 10.85482 | 27878 ft | 352 kts | 197° |
| 2026-05-08 20:03 | 61.67990 | 10.84625 | 27590 ft | 350 kts | 197° |
| 2026-05-08 20:03 | 61.64887 | 10.82944 | 27038 ft | 345 kts | 197° |
| 2026-05-08 20:03 | 61.62595 | 10.81706 | 26623 ft | 342 kts | 197° |
| 2026-05-08 20:04 | 61.61034 | 10.80864 | 26335 ft | 340 kts | 196° |
| 2026-05-08 20:04 | 61.58006 | 10.79233 | 25773 ft | 336 kts | 196° |
| 2026-05-08 20:04 | 61.56515 | 10.78430 | 25495 ft | 334 kts | 196° |
| 2026-05-08 20:04 | 61.54289 | 10.77237 | 25075 ft | 331 kts | 197° |
| 2026-05-08 20:05 | 61.51337 | 10.75655 | 24517 ft | 328 kts | 197° |
| 2026-05-08 20:05 | 61.49142 | 10.74478 | 24109 ft | 326 kts | 197° |
| 2026-05-08 20:05 | 61.46968 | 10.73315 | 23711 ft | 323 kts | 196° |
| 2026-05-08 20:05 | 61.44787 | 10.72150 | 23304 ft | 321 kts | 196° |
| 2026-05-08 20:06 | 61.42648 | 10.71009 | 22908 ft | 319 kts | 197° |
| 2026-05-08 20:06 | 61.41215 | 10.70248 | 22641 ft | 318 kts | 196° |
| 2026-05-08 20:06 | 61.38390 | 10.68863 | 22067 ft | 319 kts | 188° |
| 2026-05-08 20:06 | 61.36164 | 10.69276 | 21531 ft | 326 kts | 171° |
| 2026-05-08 20:07 | 61.33933 | 10.70381 | 20969 ft | 340 kts | 170° |
| 2026-05-08 20:07 | 61.31582 | 10.71548 | 20393 ft | 354 kts | 170° |
| 2026-05-08 20:07 | 61.29210 | 10.72687 | 19891 ft | 355 kts | 170° |
| 2026-05-08 20:07 | 61.26805 | 10.73944 | 19391 ft | 353 kts | 168° |
| 2026-05-08 20:08 | 61.24441 | 10.75250 | 18880 ft | 353 kts | 168° |
| 2026-05-08 20:08 | 61.22097 | 10.76551 | 18434 ft | 349 kts | 168° |
| 2026-05-08 20:08 | 61.19771 | 10.77841 | 17960 ft | 346 kts | 168° |
| 2026-05-08 20:08 | 61.18233 | 10.78691 | 17638 ft | 345 kts | 168° |
| 2026-05-08 20:09 | 61.15161 | 10.80376 | 17045 ft | 341 kts | 168° |
| 2026-05-08 20:09 | 61.13652 | 10.81202 | 16757 ft | 340 kts | 168° |
| 2026-05-08 20:09 | 61.11396 | 10.82439 | 16318 ft | 337 kts | 167° |
| 2026-05-08 20:09 | 61.08385 | 10.84086 | 15784 ft | 334 kts | 168° |
| 2026-05-08 20:10 | 61.06902 | 10.84885 | 15513 ft | 332 kts | 168° |
| 2026-05-08 20:10 | 61.03950 | 10.86477 | 14972 ft | 329 kts | 168° |
| 2026-05-08 20:10 | 61.01747 | 10.87666 | 14567 ft | 327 kts | 168° |
| 2026-05-08 20:10 | 60.99557 | 10.88848 | 14147 ft | 325 kts | 168° |
| 2026-05-08 20:11 | 60.97384 | 10.90020 | 13724 ft | 322 kts | 168° |
| 2026-05-08 20:11 | 60.95233 | 10.91181 | 13319 ft | 320 kts | 168° |
| 2026-05-08 20:11 | 60.93113 | 10.92324 | 12906 ft | 317 kts | 168° |
| 2026-05-08 20:11 | 60.90989 | 10.93467 | 12501 ft | 315 kts | 168° |
| 2026-05-08 20:12 | 60.88877 | 10.94604 | 12095 ft | 312 kts | 168° |
| 2026-05-08 20:12 | 60.86803 | 10.95718 | 11695 ft | 310 kts | 168° |
| 2026-05-08 20:12 | 60.84720 | 10.96835 | 11291 ft | 308 kts | 168° |
| 2026-05-08 20:12 | 60.82669 | 10.97932 | 10885 ft | 306 kts | 168° |
| 2026-05-08 20:13 | 60.80639 | 10.99019 | 10543 ft | 299 kts | 168° |
| 2026-05-08 20:13 | 60.78673 | 11.00075 | 10298 ft | 278 kts | 168° |
| 2026-05-08 20:13 | 60.76850 | 11.01055 | 10199 ft | 269 kts | 168° |
| 2026-05-08 20:13 | 60.75041 | 11.02018 | 9831 ft | 267 kts | 168° |
| 2026-05-08 20:14 | 60.73266 | 11.02961 | 9468 ft | 266 kts | 168° |
| 2026-05-08 20:14 | 60.72089 | 11.03585 | 9230 ft | 265 kts | 168° |
| 2026-05-08 20:14 | 60.69706 | 11.04851 | 8758 ft | 264 kts | 168° |
| 2026-05-08 20:14 | 60.67953 | 11.05781 | 8452 ft | 262 kts | 168° |
| 2026-05-08 20:15 | 60.66201 | 11.06710 | 8160 ft | 259 kts | 168° |
| 2026-05-08 20:15 | 60.64454 | 11.07635 | 7847 ft | 258 kts | 168° |
| 2026-05-08 20:15 | 60.63318 | 11.08235 | 7647 ft | 257 kts | 168° |
| 2026-05-08 20:15 | 60.61005 | 11.09458 | 7244 ft | 255 kts | 168° |
| 2026-05-08 20:16 | 60.59875 | 11.10054 | 7043 ft | 255 kts | 168° |
| 2026-05-08 20:16 | 60.57595 | 11.11256 | 6642 ft | 253 kts | 168° |
| 2026-05-08 20:16 | 60.56471 | 11.11848 | 6453 ft | 252 kts | 168° |
| 2026-05-08 20:16 | 60.54791 | 11.12733 | 6129 ft | 251 kts | 168° |
| 2026-05-08 20:17 | 60.53112 | 11.13616 | 5810 ft | 250 kts | 168° |
| 2026-05-08 20:17 | 60.51434 | 11.14499 | 5492 ft | 249 kts | 168° |
| 2026-05-08 20:17 | 60.49764 | 11.15378 | 5193 ft | 247 kts | 168° |
| 2026-05-08 20:17 | 60.47595 | 11.16517 | 4644 ft | 238 kts | 168° |
| 2026-05-08 20:18 | 60.46035 | 11.17336 | 4391 ft | 222 kts | 168° |
| 2026-05-08 20:18 | 60.44568 | 11.18104 | 4266 ft | 217 kts | 169° |
| 2026-05-08 20:18 | 60.43109 | 11.18864 | 4159 ft | 215 kts | 169° |
| 2026-05-08 20:18 | 60.42157 | 11.19360 | 4058 ft | 210 kts | 169° |
| 2026-05-08 20:19 | 60.40787 | 11.19880 | 3982 ft | 195 kts | 184° |
| 2026-05-08 20:19 | 60.39047 | 11.19307 | 3979 ft | 190 kts | 197° |
| 2026-05-08 20:19 | 60.37777 | 11.18544 | 3926 ft | 190 kts | 198° |
| 2026-05-08 20:19 | 60.36505 | 11.17756 | 3700 ft | 192 kts | 198° |
| 2026-05-08 20:20 | 60.35236 | 11.16997 | 3444 ft | 189 kts | 198° |
| 2026-05-08 20:20 | 60.34008 | 11.16285 | 3239 ft | 176 kts | 197° |
| 2026-05-08 20:20 | 60.32883 | 11.15642 | 3025 ft | 166 kts | 197° |
| 2026-05-08 20:20 | 60.31783 | 11.15013 | 2786 ft | 165 kts | 197° |
| 2026-05-08 20:21 | 60.30680 | 11.14382 | 2546 ft | 164 kts | 197° |
| 2026-05-08 20:21 | 60.29597 | 11.13762 | 2338 ft | 157 kts | 197° |
| 2026-05-08 20:21 | 60.28595 | 11.13188 | 2121 ft | 143 kts | 197° |
| 2026-05-08 20:21 | 60.27691 | 11.12671 | 1911 ft | 130 kts | 197° |
| 2026-05-08 20:22 | 60.26844 | 11.12182 | 1744 ft | 126 kts | 197° |
| 2026-05-08 20:22 | 60.26000 | 11.11696 | 1590 ft | 125 kts | 197° |
| 2026-05-08 20:22 | 60.25170 | 11.11218 | 1430 ft | 125 kts | 197° |
| 2026-05-08 20:22 | 60.24607 | 11.10894 | 1314 ft | 125 kts | 197° |
| 2026-05-08 20:23 | 60.23506 | 11.10263 | 1078 ft | 124 kts | 197° |
| 2026-05-08 20:23 | 60.22680 | 11.09781 | 933 ft | 123 kts | 197° |
| 2026-05-08 20:23 | 60.21859 | 11.09303 | 764 ft | 121 kts | 196° |
| 2026-05-08 20:23 | 60.21061 | 11.08847 | 680 ft | 114 kts | 196° |
| 2026-05-08 20:24 | 60.20422 | 11.08479 | 676 ft | 70 kts | 196° |
| 2026-05-08 20:24 | 60.20067 | 11.08294 | 675 ft | 37 kts | 185° |
| 2026-05-08 20:24 | 60.19934 | 11.08332 | 674 ft | 6 kts | 148° |
| 2026-05-08 20:24 | 60.19903 | 11.08396 | 675 ft | 6 kts | 116° |
| 2026-05-08 20:25 | 60.19888 | 11.08484 | 675 ft | 7 kts | 106° |
| 2026-05-08 20:25 | 60.19848 | 11.08750 | 676 ft | 25 kts | 107° |
| 2026-05-08 20:25 | 60.19813 | 11.08999 | 678 ft | 16 kts | 105° |
| 2026-05-08 20:25 | 60.19783 | 11.09205 | 678 ft | 9 kts | 105° |
| 2026-05-08 20:26 | 60.19756 | 11.09322 | 678 ft | 7 kts | 150° |
| 2026-05-08 20:26 | 60.19706 | 11.09329 | 678 ft | 8 kts | 182° |
| 2026-05-08 20:26 | 60.19648 | 11.09313 | 678 ft | 4 kts | 196° |
| 2026-05-08 20:26 | 60.19615 | 11.09293 | 677 ft | 6 kts | 196° |
| 2026-05-08 20:27 | 60.19593 | 11.09280 | 677 ft | 3 kts | 196° |
| 2026-05-08 20:27 | 60.19588 | 11.09277 | 677 ft | 0 kts | 196° |